createdAt,value
2018-09-09T00:01:06.802Z,94.80
2018-09-09T00:03:38.009Z,94.70
2018-09-09T00:06:09.065Z,95.20
2018-09-09T00:08:39.689Z,95.10
2018-09-09T00:11:10.640Z,95.30
2018-09-09T00:13:41.101Z,95.00
2018-09-09T00:16:12.576Z,94.90
2018-09-09T00:18:43.494Z,94.90
2018-09-09T00:21:16.613Z,94.90
2018-09-09T00:23:47.738Z,94.90
2018-09-09T00:26:18.756Z,95.00
2018-09-09T00:28:52.625Z,94.90
2018-09-09T00:31:26.832Z,94.90
2018-09-09T00:33:59.467Z,94.60
2018-09-09T00:36:31.930Z,94.90
2018-09-09T00:39:03.738Z,94.90
2018-09-09T00:41:34.177Z,94.80
2018-09-09T00:44:05.518Z,94.90
2018-09-09T00:46:36.179Z,94.90
2018-09-09T00:49:13.799Z,94.90
2018-09-09T00:51:50.431Z,95.00
2018-09-09T00:54:21.433Z,95.30
2018-09-09T00:56:52.154Z,95.20
2018-09-09T00:59:23.309Z,95.20
2018-09-09T01:01:54.983Z,95.10
2018-09-09T01:04:25.573Z,95.20
2018-09-09T01:06:58.536Z,95.10
2018-09-09T01:09:35.322Z,95.20
2018-09-09T01:12:06.204Z,95.30
2018-09-09T01:14:38.063Z,95.20
2018-09-09T01:17:09.654Z,95.30
2018-09-09T01:19:40.936Z,95.40
2018-09-09T01:22:11.959Z,95.20
2018-09-09T01:24:49.149Z,95.20
2018-09-09T01:27:19.570Z,95.20
2018-09-09T01:29:50.840Z,95.20
2018-09-09T01:32:21.325Z,95.50
2018-09-09T01:34:55.556Z,95.20
2018-09-09T01:37:27.207Z,95.40
2018-09-09T01:40:00.587Z,95.50
2018-09-09T01:42:31.697Z,95.20
2018-09-09T01:45:03.634Z,95.30
2018-09-09T01:47:34.076Z,95.40
2018-09-09T01:50:08.559Z,95.50
2018-09-09T01:52:41.597Z,95.60
2018-09-09T01:55:16.982Z,95.50
2018-09-09T01:57:47.692Z,95.30
2018-09-09T02:00:18.170Z,95.40
2018-09-09T02:02:49.414Z,95.50
2018-09-09T02:05:22.733Z,95.60
2018-09-09T02:07:53.797Z,95.50
2018-09-09T02:10:25.731Z,95.60
2018-09-09T02:13:00.061Z,95.30
2018-09-09T02:15:32.054Z,95.10
2018-09-09T02:18:03.793Z,95.20
2018-09-09T02:20:35.001Z,95.20
2018-09-09T02:23:07.638Z,95.00
2018-09-09T02:25:38.850Z,94.90
2018-09-09T02:28:09.858Z,94.80
2018-09-09T02:30:41.437Z,94.90
2018-09-09T02:33:14.113Z,95.10
2018-09-09T02:35:45.488Z,95.20
2018-09-09T02:38:17.735Z,95.30
2018-09-09T02:40:49.277Z,95.30
2018-09-09T02:43:21.442Z,95.20
2018-09-09T02:45:51.828Z,95.10
2018-09-09T02:48:22.666Z,95.00
2018-09-09T02:50:53.558Z,95.20
2018-09-09T02:53:24.156Z,94.90
2018-09-09T02:55:54.647Z,95.00
2018-09-09T02:58:25.990Z,94.90
2018-09-09T03:00:57.369Z,95.00
2018-09-09T03:03:30.157Z,95.10
2018-09-09T03:06:01.045Z,95.20
2018-09-09T03:08:33.990Z,95.40
2018-09-09T03:11:09.572Z,95.50
2018-09-09T03:13:40.407Z,95.50
2018-09-09T03:16:11.191Z,95.50
2018-09-09T03:18:43.342Z,95.50
2018-09-09T03:21:16.743Z,95.60
2018-09-09T03:23:48.530Z,95.60
2018-09-09T03:26:19.031Z,95.60
2018-09-09T03:28:49.771Z,95.40
2018-09-09T03:31:22.907Z,95.30
2018-09-09T03:33:55.489Z,95.30
2018-09-09T03:36:27.459Z,95.30
2018-09-09T03:38:58.784Z,95.20
2018-09-09T03:41:30.762Z,95.30
2018-09-09T03:44:06.850Z,95.10
2018-09-09T03:46:39.805Z,95.00
2018-09-09T03:49:11.241Z,94.80
2018-09-09T03:51:44.410Z,94.80
2018-09-09T03:54:15.677Z,95.00
2018-09-09T03:56:47.006Z,95.20
2018-09-09T03:59:18.935Z,95.10
2018-09-09T04:01:50.270Z,94.90
2018-09-09T04:04:22.452Z,94.80
2018-09-09T04:06:55.629Z,94.80
2018-09-09T04:09:29.581Z,94.90
2018-09-09T04:12:02.961Z,95.00
2018-09-09T04:14:34.139Z,95.10
2018-09-09T04:17:07.414Z,95.20
2018-09-09T04:19:38.259Z,95.50
2018-09-09T04:22:08.697Z,95.10
2018-09-09T04:24:42.581Z,95.30
2018-09-09T04:27:14.086Z,95.60
2018-09-09T04:29:44.777Z,95.90
2018-09-09T04:32:16.471Z,96.20
2018-09-09T04:34:47.549Z,96.20
2018-09-09T04:37:17.978Z,96.10
2018-09-09T04:39:48.974Z,96.30
2018-09-09T04:42:21.185Z,96.40
2018-09-09T04:44:52.479Z,96.50
2018-09-09T04:47:23.101Z,96.60
2018-09-09T04:49:54.809Z,96.40
2018-09-09T04:52:26.507Z,96.40
2018-09-09T04:54:57.707Z,96.50
2018-09-09T04:57:29.807Z,96.50
2018-09-09T05:00:00.785Z,96.40
2018-09-09T05:02:32.341Z,96.50
2018-09-09T05:05:03.222Z,96.50
2018-09-09T05:07:33.656Z,96.60
2018-09-09T05:10:05.718Z,96.60
2018-09-09T05:12:37.181Z,96.60
2018-09-09T05:15:07.963Z,96.30
2018-09-09T05:17:38.819Z,96.30
2018-09-09T05:20:11.983Z,96.30
2018-09-09T05:22:47.366Z,96.10
2018-09-09T05:25:18.369Z,95.80
2018-09-09T05:27:49.446Z,95.80
2018-09-09T05:30:22.446Z,95.90
2018-09-09T05:32:53.432Z,95.90
2018-09-09T05:35:34.119Z,95.90
2018-09-09T05:38:07.105Z,96.00
2018-09-09T05:40:37.553Z,96.40
2018-09-09T05:43:08.174Z,96.20
2018-09-09T05:45:38.553Z,96.30
2018-09-09T05:48:23.467Z,96.70
2018-09-09T05:50:54.839Z,96.60
2018-09-09T05:53:27.261Z,96.50
2018-09-09T05:55:58.448Z,96.80
2018-09-09T05:58:29.308Z,96.80
2018-09-09T06:01:00.397Z,96.90
2018-09-09T06:03:30.824Z,96.90
2018-09-09T06:06:01.213Z,96.80
2018-09-09T06:08:31.844Z,96.60
2018-09-09T06:11:02.962Z,96.70
2018-09-09T06:13:33.896Z,96.80
2018-09-09T06:16:05.627Z,96.90
2018-09-09T06:18:36.536Z,97.00
2018-09-09T06:21:08.010Z,96.90
2018-09-09T06:23:42.499Z,96.70
2018-09-09T06:26:13.693Z,96.70
2018-09-09T06:28:45.738Z,96.20
2018-09-09T06:31:16.645Z,95.90
2018-09-09T06:33:49.115Z,95.50
2018-09-09T06:36:19.593Z,95.70
2018-09-09T06:38:50.156Z,95.90
2018-09-09T06:41:24.508Z,95.80
2018-09-09T06:43:54.866Z,95.90
2018-09-09T06:46:26.357Z,95.40
2018-09-09T06:48:56.634Z,95.30
2018-09-09T06:51:27.429Z,95.50
2018-09-09T06:53:58.037Z,95.30
2018-09-09T06:56:30.252Z,95.40
2018-09-09T06:59:01.429Z,95.40
2018-09-09T07:01:31.995Z,95.40
2018-09-09T07:04:03.540Z,95.40
2018-09-09T07:06:34.152Z,95.50
2018-09-09T07:09:05.893Z,95.50
2018-09-09T07:11:37.444Z,95.50
2018-09-09T07:14:08.097Z,95.60
2018-09-09T07:16:40.198Z,95.80
2018-09-09T07:19:10.723Z,95.90
2018-09-09T07:21:41.471Z,96.00
2018-09-09T07:24:11.901Z,96.00
2018-09-09T07:26:43.276Z,96.00
2018-09-09T07:29:14.444Z,96.10
2018-09-09T07:31:44.860Z,96.00
2018-09-09T07:34:15.304Z,96.20
2018-09-09T07:36:46.467Z,96.00
2018-09-09T07:39:17.461Z,95.70
2018-09-09T07:41:48.137Z,95.10
2018-09-09T07:44:20.284Z,94.40
2018-09-09T07:46:50.671Z,94.40
2018-09-09T07:49:21.033Z,94.10
2018-09-09T07:51:51.713Z,93.70
2018-09-09T07:54:22.859Z,93.70
2018-09-09T07:56:53.152Z,93.50
2018-09-09T07:59:23.518Z,93.10
2018-09-09T08:01:53.957Z,93.20
2018-09-09T08:04:24.421Z,92.50
2018-09-09T08:06:55.054Z,92.10
2018-09-09T08:09:25.566Z,91.80
2018-09-09T08:11:55.946Z,91.40
2018-09-09T08:14:27.210Z,91.00
2018-09-09T08:16:57.599Z,90.90
2018-09-09T08:19:27.888Z,90.80
2018-09-09T08:21:58.296Z,90.30
2018-09-09T08:24:28.591Z,89.40
2018-09-09T08:26:58.913Z,90.00
2018-09-09T08:29:29.258Z,87.60
2018-09-09T08:31:59.677Z,88.50
2018-09-09T08:34:30.059Z,88.40
2018-09-09T08:37:00.679Z,88.20
2018-09-09T08:39:31.004Z,86.80
2018-09-09T08:42:01.408Z,84.50
2018-09-09T08:44:31.809Z,83.30
2018-09-09T08:47:02.139Z,83.80
2018-09-09T08:49:32.834Z,82.50
2018-09-09T08:52:03.244Z,82.30
2018-09-09T08:54:34.899Z,81.20
2018-09-09T08:57:05.214Z,79.40
2018-09-09T08:59:35.821Z,79.90
2018-09-09T09:02:06.342Z,78.10
2018-09-09T09:04:37.593Z,75.30
2018-09-09T09:07:08.090Z,72.30
2018-09-09T09:09:39.073Z,72.30
2018-09-09T09:12:12.360Z,74.20
2018-09-09T09:14:44.357Z,75.10
2018-09-09T09:17:14.637Z,71.60
2018-09-09T09:19:44.967Z,61.60
2018-09-09T09:22:15.285Z,59.00
2018-09-09T09:24:46.211Z,58.10
2018-09-09T09:27:16.633Z,59.50
2018-09-09T09:29:52.494Z,57.90
2018-09-09T09:32:24.456Z,57.00
2018-09-09T09:34:55.591Z,57.10
2018-09-09T09:37:26.854Z,56.50
2018-09-09T09:39:57.175Z,55.20
2018-09-09T09:42:27.585Z,55.20
2018-09-09T09:44:58.407Z,55.90
2018-09-09T09:47:29.236Z,53.50
2018-09-09T09:49:59.579Z,53.30
2018-09-09T09:52:29.909Z,54.40
2018-09-09T09:55:00.236Z,53.10
2018-09-09T09:57:31.693Z,52.20
2018-09-09T10:00:02.403Z,52.90
2018-09-09T10:02:34.201Z,54.60
2018-09-09T10:05:04.853Z,51.40
2018-09-09T10:07:35.769Z,51.00
2018-09-09T10:10:06.199Z,49.10
2018-09-09T10:12:39.929Z,51.00
2018-09-09T10:15:10.383Z,49.50
2018-09-09T10:17:41.482Z,47.70
2018-09-09T10:20:12.461Z,48.70
2018-09-09T10:22:46.571Z,49.40
2018-09-09T10:25:17.294Z,50.00
2018-09-09T10:27:49.117Z,47.40
2018-09-09T10:30:19.491Z,45.10
2018-09-09T10:32:57.244Z,45.30
2018-09-09T10:35:28.670Z,46.40
2018-09-09T10:37:59.394Z,44.10
2018-09-09T10:40:29.725Z,44.20
2018-09-09T10:43:00.493Z,46.70
2018-09-09T10:45:33.589Z,46.60
2018-09-09T10:48:10.457Z,47.00
2018-09-09T10:50:42.054Z,44.00
2018-09-09T10:53:12.735Z,40.90
2018-09-09T10:55:50.334Z,41.60
2018-09-09T10:58:21.190Z,42.20
2018-09-09T11:00:52.167Z,44.40
2018-09-09T11:03:29.509Z,44.60
2018-09-09T11:06:00.428Z,41.80
2018-09-09T11:08:32.896Z,40.00
2018-09-09T11:11:03.580Z,40.70
2018-09-09T11:13:34.395Z,39.20
2018-09-09T11:16:04.701Z,39.10
2018-09-09T11:18:35.061Z,35.80
2018-09-09T11:21:06.512Z,34.60
2018-09-09T11:23:36.862Z,34.20
2018-09-09T11:26:07.468Z,34.30
2018-09-09T11:28:38.096Z,34.60
2018-09-09T11:31:17.016Z,30.80
2018-09-09T11:33:54.427Z,29.40
2018-09-09T11:36:25.861Z,31.20
2018-09-09T11:38:58.682Z,32.30
2018-09-09T11:41:31.050Z,33.40
2018-09-09T11:44:03.078Z,30.30
2018-09-09T11:46:33.732Z,29.50
2018-09-09T11:49:05.762Z,30.20
2018-09-09T11:51:36.681Z,31.70
2018-09-09T11:54:12.117Z,30.20
2018-09-09T11:56:42.761Z,30.50
2018-09-09T11:59:13.597Z,31.50
2018-09-09T12:01:43.997Z,32.90
2018-09-09T12:04:14.829Z,34.40
2018-09-09T12:06:45.845Z,33.70
2018-09-09T12:09:17.456Z,33.50
2018-09-09T12:11:47.852Z,34.90
2018-09-09T12:14:18.603Z,34.60
2018-09-09T12:16:50.272Z,34.70
2018-09-09T12:19:21.311Z,35.50
2018-09-09T12:21:51.706Z,38.30
2018-09-09T12:24:22.461Z,38.70
2018-09-09T12:26:52.811Z,38.10
2018-09-09T12:29:31.483Z,39.10
2018-09-09T12:32:04.487Z,37.10
2018-09-09T12:34:36.050Z,36.70
2018-09-09T12:37:09.738Z,35.90
2018-09-09T12:39:40.241Z,36.20
2018-09-09T12:42:12.131Z,35.40
2018-09-09T12:45:51.419Z,30.50
2018-09-09T12:48:27.025Z,31.30
2018-09-09T12:50:57.623Z,31.30
2018-09-09T12:53:27.954Z,32.30
2018-09-09T12:55:59.231Z,31.40
2018-09-09T12:58:29.810Z,33.50
2018-09-09T13:01:00.093Z,29.60
2018-09-09T13:03:30.458Z,28.70
2018-09-09T13:06:00.838Z,30.20
2018-09-09T13:08:31.283Z,31.30
2018-09-09T13:11:01.754Z,33.30
2018-09-09T13:13:32.175Z,32.10
2018-09-09T13:16:02.685Z,29.70
2018-09-09T13:18:33.977Z,30.20
2018-09-09T13:21:04.278Z,30.30
2018-09-09T13:23:34.807Z,31.20
2018-09-09T13:26:06.619Z,33.20
2018-09-09T13:28:37.009Z,33.40
2018-09-09T13:31:07.522Z,33.30
2018-09-09T13:33:38.001Z,34.30
2018-09-09T13:36:08.496Z,34.50
2018-09-09T13:38:39.276Z,33.50
2018-09-09T13:41:09.775Z,34.20
2018-09-09T13:43:40.211Z,35.80
2018-09-09T13:46:10.793Z,37.60
2018-09-09T13:48:41.426Z,39.00
2018-09-09T13:51:11.809Z,38.40
2018-09-09T13:53:42.225Z,37.90
2018-09-09T13:56:12.676Z,38.20
2018-09-09T13:58:43.109Z,38.10
2018-09-09T14:01:13.556Z,37.80
2018-09-09T14:03:43.963Z,37.90
2018-09-09T14:06:17.099Z,38.30
2018-09-09T14:08:48.621Z,39.40
2018-09-09T14:11:18.917Z,38.60
2018-09-09T14:13:49.503Z,39.30
2018-09-09T14:16:19.948Z,39.40
2018-09-09T14:18:50.289Z,39.60
2018-09-09T14:21:20.851Z,39.90
2018-09-09T14:23:51.112Z,39.70
2018-09-09T14:26:21.580Z,39.10
2018-09-09T14:28:51.963Z,39.60
2018-09-09T14:31:22.315Z,38.90
2018-09-09T14:33:52.617Z,39.70
2018-09-09T14:36:22.906Z,38.80
2018-09-09T14:38:53.836Z,38.60
2018-09-09T14:41:24.257Z,39.30
2018-09-09T14:43:54.634Z,38.30
2018-09-09T14:46:25.053Z,37.40
2018-09-09T14:48:55.506Z,38.80
2018-09-09T14:51:25.778Z,38.60
2018-09-09T14:53:56.232Z,39.00
2018-09-09T14:56:26.631Z,38.60
2018-09-09T14:58:57.018Z,37.20
2018-09-09T15:01:28.072Z,38.20
2018-09-09T15:03:59.004Z,38.40
2018-09-09T15:06:30.512Z,38.00
2018-09-09T15:09:00.882Z,36.40
2018-09-09T15:11:31.580Z,35.90
2018-09-09T15:14:02.759Z,35.50
2018-09-09T15:16:34.441Z,36.30
2018-09-09T15:19:05.770Z,37.20
2018-09-09T15:21:36.091Z,37.20
2018-09-09T15:24:06.819Z,39.00
2018-09-09T15:26:37.233Z,36.40
2018-09-09T15:29:07.614Z,36.40
2018-09-09T15:31:38.196Z,35.10
2018-09-09T15:34:08.617Z,34.20
2018-09-09T15:36:39.086Z,33.80
2018-09-09T15:39:09.882Z,34.80
2018-09-09T15:41:40.266Z,32.90
2018-09-09T15:44:10.619Z,32.90
2018-09-09T15:46:40.925Z,32.90
2018-09-09T15:49:11.275Z,34.40
2018-09-09T15:51:41.698Z,33.70
2018-09-09T15:54:12.093Z,32.90
2018-09-09T15:56:43.843Z,32.40
2018-09-09T15:59:14.180Z,32.20
2018-09-09T16:01:44.912Z,31.60
2018-09-09T16:04:15.245Z,30.50
2018-09-09T16:06:45.648Z,30.80
2018-09-09T16:09:15.962Z,30.10
2018-09-09T16:11:46.365Z,30.10
2018-09-09T16:14:16.678Z,31.00
2018-09-09T16:16:47.050Z,32.90
2018-09-09T16:19:17.401Z,34.30
2018-09-09T16:21:48.615Z,38.10
2018-09-09T16:24:18.966Z,38.10
2018-09-09T16:26:50.020Z,39.10
2018-09-09T16:29:20.382Z,39.60
2018-09-09T16:31:50.721Z,40.90
2018-09-09T16:34:21.084Z,41.10
2018-09-09T16:36:51.393Z,42.40
2018-09-09T16:39:21.775Z,44.60
2018-09-09T16:41:52.822Z,44.30
2018-09-09T16:44:23.197Z,45.80
2018-09-09T16:46:53.600Z,46.50
2018-09-09T16:49:23.907Z,46.90
2018-09-09T16:51:54.258Z,47.50
2018-09-09T16:54:24.685Z,49.20
2018-09-09T16:56:55.172Z,50.60
2018-09-09T16:59:25.682Z,51.80
2018-09-09T17:01:56.118Z,51.90
2018-09-09T17:04:27.354Z,52.80
2018-09-09T17:06:58.164Z,53.10
2018-09-09T17:09:29.965Z,53.80
2018-09-09T17:12:00.417Z,54.90
2018-09-09T17:14:31.584Z,54.90
2018-09-09T17:17:02.101Z,54.50
2018-09-09T17:19:32.388Z,55.00
2018-09-09T17:22:02.821Z,56.30
2018-09-09T17:24:33.689Z,56.00
2018-09-09T17:27:04.194Z,56.60
2018-09-09T17:29:34.500Z,56.70
2018-09-09T17:32:05.506Z,56.70
2018-09-09T17:34:35.743Z,57.40
2018-09-09T17:37:06.125Z,58.40
2018-09-09T17:39:36.520Z,58.90
2018-09-09T17:42:06.912Z,59.70
2018-09-09T17:44:37.807Z,60.10
2018-09-09T17:47:08.178Z,60.70
2018-09-09T17:49:39.088Z,61.40
2018-09-09T17:52:09.420Z,61.40
2018-09-09T17:54:39.792Z,62.40
2018-09-09T17:57:10.117Z,61.80
2018-09-09T17:59:40.414Z,62.90
2018-09-09T18:02:10.785Z,64.10
2018-09-09T18:04:41.100Z,64.40
2018-09-09T18:07:11.401Z,64.50
2018-09-09T18:09:42.051Z,64.80
2018-09-09T18:12:12.425Z,64.90
2018-09-09T18:14:43.110Z,66.30
2018-09-09T18:17:13.473Z,66.80
2018-09-09T18:19:44.024Z,66.80
2018-09-09T18:22:14.306Z,67.90
2018-09-09T18:24:44.804Z,68.00
2018-09-09T18:27:15.198Z,68.00
2018-09-09T18:29:45.816Z,68.30
2018-09-09T18:32:16.179Z,68.80
2018-09-09T18:34:46.607Z,68.50
2018-09-09T18:37:17.011Z,69.80
2018-09-09T18:39:49.746Z,70.10
2018-09-09T18:42:21.485Z,70.70
2018-09-09T18:44:51.840Z,70.60
2018-09-09T18:47:22.292Z,70.40
2018-09-09T18:49:52.610Z,71.30
2018-09-09T18:52:24.873Z,71.80
2018-09-09T18:54:55.250Z,72.00
2018-09-09T18:57:26.216Z,72.40
2018-09-09T18:59:56.806Z,72.10
2018-09-09T19:02:27.916Z,72.00
2018-09-09T19:04:59.041Z,72.60
2018-09-09T19:07:29.420Z,72.20
2018-09-09T19:10:02.085Z,72.00
2018-09-09T19:12:32.461Z,72.20
2018-09-09T19:15:03.617Z,72.10
2018-09-09T19:17:35.371Z,72.10
2018-09-09T19:20:05.801Z,72.20
2018-09-09T19:22:36.382Z,72.40
2018-09-09T19:25:07.269Z,72.50
2018-09-09T19:27:38.513Z,72.70
2018-09-09T19:30:08.848Z,73.10
2018-09-09T19:32:39.984Z,73.00
2018-09-09T19:35:10.299Z,73.30
2018-09-09T19:37:40.696Z,72.80
2018-09-09T19:40:11.039Z,73.70
2018-09-09T19:42:41.469Z,74.00
2018-09-09T19:45:11.786Z,74.10
2018-09-09T19:47:43.060Z,74.30
2018-09-09T19:50:13.522Z,74.00
2018-09-09T19:52:43.919Z,74.10
2018-09-09T19:55:14.326Z,74.10
2018-09-09T19:57:44.758Z,74.30
2018-09-09T20:00:15.948Z,74.10
2018-09-09T20:02:46.316Z,74.70
2018-09-09T20:05:17.352Z,75.00
2018-09-09T20:07:47.661Z,75.30
2018-09-09T20:10:18.032Z,75.30
2018-09-09T20:12:48.442Z,76.10
2018-09-09T20:15:19.837Z,76.40
2018-09-09T20:17:51.348Z,76.40
2018-09-09T20:20:22.625Z,76.40
2018-09-09T20:22:53.035Z,76.70
2018-09-09T20:25:23.247Z,76.70
2018-09-09T20:27:54.526Z,76.60
2018-09-09T20:30:24.897Z,77.10
2018-09-09T20:32:55.254Z,77.60
2018-09-09T20:35:26.391Z,77.10
2018-09-09T20:37:56.729Z,77.20
2018-09-09T20:40:28.099Z,77.40
2018-09-09T20:42:58.690Z,77.60
2018-09-09T20:45:29.661Z,77.60
2018-09-09T20:48:00.152Z,77.70
2018-09-09T20:50:30.489Z,77.70
2018-09-09T20:53:00.942Z,77.50
2018-09-09T20:55:31.349Z,77.70
2018-09-09T20:58:01.768Z,77.70
2018-09-09T21:00:32.106Z,78.20
2018-09-09T21:03:03.283Z,78.10
2018-09-09T21:05:33.609Z,78.30
2018-09-09T21:08:04.920Z,78.40
2018-09-09T21:10:35.209Z,78.10
2018-09-09T21:13:05.492Z,77.80
2018-09-09T21:15:35.905Z,78.00
2018-09-09T21:18:06.283Z,78.10
2018-09-09T21:20:36.613Z,78.00
2018-09-09T21:23:07.405Z,77.90
2018-09-09T21:25:38.521Z,77.80
2018-09-09T21:28:08.841Z,78.30
2018-09-09T21:30:39.201Z,78.10
2018-09-09T21:33:09.625Z,77.90
2018-09-09T21:35:40.060Z,78.20
2018-09-09T21:38:10.421Z,78.60
2018-09-09T21:40:40.756Z,79.00
2018-09-09T21:43:11.090Z,79.10
2018-09-09T21:45:41.486Z,79.70
2018-09-09T21:48:11.830Z,80.30
2018-09-09T21:50:42.927Z,79.70
2018-09-09T21:53:13.212Z,79.40
2018-09-09T21:55:43.517Z,79.60
2018-09-09T21:58:13.897Z,80.20
2018-09-09T22:00:50.180Z,80.40
2018-09-09T22:03:20.494Z,80.20
2018-09-09T22:05:50.816Z,80.80
2018-09-09T22:08:21.124Z,80.50
2018-09-09T22:10:52.012Z,80.40
2018-09-09T22:13:22.309Z,80.70
2018-09-09T22:15:52.818Z,81.10
2018-09-09T22:18:23.824Z,81.70
2018-09-09T22:20:54.141Z,81.70
2018-09-09T22:23:25.181Z,81.80
2018-09-09T22:25:55.552Z,81.60
2018-09-09T22:28:26.008Z,82.00
2018-09-09T22:30:57.153Z,82.00
2018-09-09T22:33:27.524Z,82.30
2018-09-09T22:35:57.859Z,82.50
2018-09-09T22:38:28.294Z,82.70
2018-09-09T22:40:58.628Z,82.70
2018-09-09T22:43:29.084Z,82.60
2018-09-09T22:46:00.306Z,82.70
2018-09-09T22:48:30.557Z,82.80
2018-09-09T22:51:00.867Z,82.70
2018-09-09T22:53:31.153Z,83.30
2018-09-09T22:56:01.466Z,83.50
2018-09-09T22:58:31.774Z,83.40
2018-09-09T23:01:02.104Z,83.50
2018-09-09T23:03:32.767Z,83.50
2018-09-09T23:06:03.856Z,83.50
2018-09-09T23:08:34.374Z,83.70
2018-09-09T23:11:04.783Z,83.50
2018-09-09T23:13:35.089Z,83.40
2018-09-09T23:16:05.516Z,83.40
2018-09-09T23:18:35.860Z,83.50
2018-09-09T23:21:06.980Z,83.90
2018-09-09T23:23:37.306Z,84.00
2018-09-09T23:26:09.496Z,84.50
2018-09-09T23:28:39.882Z,84.50
2018-09-09T23:31:10.190Z,85.10
2018-09-09T23:33:40.600Z,85.80
2018-09-09T23:36:11.221Z,86.10
2018-09-09T23:38:41.534Z,86.50
2018-09-09T23:41:11.867Z,86.70
2018-09-09T23:43:43.334Z,86.90
2018-09-09T23:46:13.710Z,87.40
2018-09-09T23:48:44.113Z,87.60
2018-09-09T23:51:14.436Z,87.90
2018-09-09T23:53:44.798Z,88.30
2018-09-09T23:56:15.176Z,89.00
2018-09-09T23:58:45.531Z,89.40
